sensor_id;sensor_type;location;lat;lon;timestamp;P1;durP1;ratioP1;P2;durP2;ratioP2
25045;SDS011;13044;49.304;12.840;2023-06-01T00:02:24;12.27;;;3.90;;
25045;SDS011;13044;49.304;12.840;2023-06-01T00:04:52;7.05;;;3.97;;
25045;SDS011;13044;49.304;12.840;2023-06-01T00:07:19;9.10;;;3.92;;
25045;SDS011;13044;49.304;12.840;2023-06-01T00:09:47;6.70;;;3.97;;
25045;SDS011;13044;49.304;12.840;2023-06-01T00:12:14;6.72;;;4.03;;
25045;SDS011;13044;49.304;12.840;2023-06-01T00:14:41;6.63;;;3.67;;
25045;SDS011;13044;49.304;12.840;2023-06-01T00:17:08;5.20;;;3.90;;
25045;SDS011;13044;49.304;12.840;2023-06-01T00:19:35;8.02;;;4.07;;
25045;SDS011;13044;49.304;12.840;2023-06-01T00:22:04;7.70;;;4.03;;
25045;SDS011;13044;49.304;12.840;2023-06-01T00:24:33;5.47;;;3.80;;
25045;SDS011;13044;49.304;12.840;2023-06-01T00:27:00;6.70;;;3.30;;
25045;SDS011;13044;49.304;12.840;2023-06-01T00:29:28;9.30;;;3.45;;
25045;SDS011;13044;49.304;12.840;2023-06-01T00:31:56;4.63;;;3.15;;
25045;SDS011;13044;49.304;12.840;2023-06-01T00:34:23;6.38;;;3.95;;
25045;SDS011;13044;49.304;12.840;2023-06-01T00:36:50;6.85;;;3.67;;
25045;SDS011;13044;49.304;12.840;2023-06-01T00:39:17;6.68;;;3.67;;
25045;SDS011;13044;49.304;12.840;2023-06-01T00:41:45;8.00;;;3.85;;
25045;SDS011;13044;49.304;12.840;2023-06-01T00:44:11;5.65;;;3.15;;
25045;SDS011;13044;49.304;12.840;2023-06-01T00:46:38;7.07;;;3.92;;
25045;SDS011;13044;49.304;12.840;2023-06-01T00:49:06;8.98;;;3.85;;
25045;SDS011;13044;49.304;12.840;2023-06-01T00:51:33;8.40;;;3.75;;
25045;SDS011;13044;49.304;12.840;2023-06-01T00:54:01;6.70;;;4.30;;
25045;SDS011;13044;49.304;12.840;2023-06-01T00:56:29;7.47;;;3.60;;
25045;SDS011;13044;49.304;12.840;2023-06-01T00:58:57;8.82;;;4.00;;
25045;SDS011;13044;49.304;12.840;2023-06-01T01:01:25;10.00;;;4.32;;
25045;SDS011;13044;49.304;12.840;2023-06-01T01:03:52;8.20;;;3.67;;
25045;SDS011;13044;49.304;12.840;2023-06-01T01:09:39;5.97;;;3.58;;
25045;SDS011;13044;49.304;12.840;2023-06-01T01:12:31;9.68;;;3.38;;
25045;SDS011;13044;49.304;12.840;2023-06-01T01:15:15;6.72;;;3.78;;
25045;SDS011;13044;49.304;12.840;2023-06-01T01:17:50;5.38;;;4.10;;
25045;SDS011;13044;49.304;12.840;2023-06-01T01:20:34;6.20;;;3.80;;
25045;SDS011;13044;49.304;12.840;2023-06-01T01:23:15;5.47;;;3.90;;
25045;SDS011;13044;49.304;12.840;2023-06-01T01:29:32;8.77;;;4.05;;
25045;SDS011;13044;49.304;12.840;2023-06-01T01:32:01;5.97;;;4.13;;
25045;SDS011;13044;49.304;12.840;2023-06-01T01:34:30;10.60;;;4.30;;
25045;SDS011;13044;49.304;12.840;2023-06-01T01:36:58;6.28;;;3.88;;
25045;SDS011;13044;49.304;12.840;2023-06-01T01:39:27;6.22;;;4.25;;
25045;SDS011;13044;49.304;12.840;2023-06-01T01:41:53;7.72;;;3.75;;
25045;SDS011;13044;49.304;12.840;2023-06-01T01:44:20;7.30;;;4.10;;
25045;SDS011;13044;49.304;12.840;2023-06-01T01:46:57;7.75;;;3.97;;
25045;SDS011;13044;49.304;12.840;2023-06-01T01:49:43;7.85;;;4.13;;
25045;SDS011;13044;49.304;12.840;2023-06-01T01:55:07;6.57;;;3.80;;
25045;SDS011;13044;49.304;12.840;2023-06-01T01:57:35;7.10;;;3.75;;
25045;SDS011;13044;49.304;12.840;2023-06-01T02:00:03;8.30;;;3.95;;
25045;SDS011;13044;49.304;12.840;2023-06-01T02:02:33;7.20;;;3.63;;
25045;SDS011;13044;49.304;12.840;2023-06-01T02:05:01;9.38;;;3.63;;
25045;SDS011;13044;49.304;12.840;2023-06-01T02:07:29;7.15;;;3.60;;
25045;SDS011;13044;49.304;12.840;2023-06-01T02:09:56;10.82;;;3.85;;
25045;SDS011;13044;49.304;12.840;2023-06-01T02:12:23;5.78;;;3.55;;
25045;SDS011;13044;49.304;12.840;2023-06-01T02:14:51;7.88;;;3.15;;
25045;SDS011;13044;49.304;12.840;2023-06-01T02:17:17;5.55;;;3.03;;
25045;SDS011;13044;49.304;12.840;2023-06-01T02:19:44;10.90;;;3.78;;
25045;SDS011;13044;49.304;12.840;2023-06-01T02:22:11;5.75;;;3.63;;
25045;SDS011;13044;49.304;12.840;2023-06-01T02:24:38;8.95;;;3.50;;
25045;SDS011;13044;49.304;12.840;2023-06-01T02:27:05;4.88;;;3.13;;
25045;SDS011;13044;49.304;12.840;2023-06-01T02:29:33;6.32;;;3.45;;
25045;SDS011;13044;49.304;12.840;2023-06-01T02:31:59;6.35;;;3.38;;
25045;SDS011;13044;49.304;12.840;2023-06-01T02:34:26;4.78;;;3.38;;
25045;SDS011;13044;49.304;12.840;2023-06-01T02:36:53;6.07;;;3.58;;
25045;SDS011;13044;49.304;12.840;2023-06-01T02:39:23;5.70;;;3.58;;
25045;SDS011;13044;49.304;12.840;2023-06-01T02:41:50;4.75;;;3.42;;
25045;SDS011;13044;49.304;12.840;2023-06-01T02:44:17;5.05;;;3.08;;
25045;SDS011;13044;49.304;12.840;2023-06-01T02:46:44;6.03;;;3.33;;
25045;SDS011;13044;49.304;12.840;2023-06-01T02:49:11;7.78;;;3.28;;
25045;SDS011;13044;49.304;12.840;2023-06-01T02:51:38;5.97;;;3.33;;
25045;SDS011;13044;49.304;12.840;2023-06-01T02:54:04;9.68;;;3.50;;
25045;SDS011;13044;49.304;12.840;2023-06-01T02:56:31;5.63;;;3.17;;
25045;SDS011;13044;49.304;12.840;2023-06-01T02:58:58;5.32;;;3.13;;
25045;SDS011;13044;49.304;12.840;2023-06-01T03:01:25;7.25;;;3.60;;
25045;SDS011;13044;49.304;12.840;2023-06-01T03:03:52;5.45;;;3.00;;
25045;SDS011;13044;49.304;12.840;2023-06-01T03:06:20;4.88;;;3.28;;
25045;SDS011;13044;49.304;12.840;2023-06-01T03:08:47;4.85;;;3.00;;
25045;SDS011;13044;49.304;12.840;2023-06-01T03:11:14;5.47;;;3.08;;
25045;SDS011;13044;49.304;12.840;2023-06-01T03:13:41;4.68;;;2.90;;
25045;SDS011;13044;49.304;12.840;2023-06-01T03:16:08;6.25;;;3.10;;
25045;SDS011;13044;49.304;12.840;2023-06-01T03:18:36;3.72;;;3.05;;
25045;SDS011;13044;49.304;12.840;2023-06-01T03:21:04;6.22;;;3.20;;
25045;SDS011;13044;49.304;12.840;2023-06-01T03:23:31;8.20;;;3.55;;
25045;SDS011;13044;49.304;12.840;2023-06-01T03:25:58;7.05;;;3.20;;
25045;SDS011;13044;49.304;12.840;2023-06-01T03:28:25;6.57;;;3.70;;
25045;SDS011;13044;49.304;12.840;2023-06-01T03:30:52;9.98;;;3.33;;
25045;SDS011;13044;49.304;12.840;2023-06-01T03:33:19;5.30;;;3.38;;
25045;SDS011;13044;49.304;12.840;2023-06-01T03:35:47;4.90;;;3.60;;
25045;SDS011;13044;49.304;12.840;2023-06-01T03:38:16;5.28;;;3.10;;
25045;SDS011;13044;49.304;12.840;2023-06-01T03:40:43;5.53;;;3.13;;
25045;SDS011;13044;49.304;12.840;2023-06-01T03:43:09;7.18;;;4.05;;
25045;SDS011;13044;49.304;12.840;2023-06-01T03:45:37;8.50;;;3.70;;
25045;SDS011;13044;49.304;12.840;2023-06-01T03:48:04;4.78;;;3.38;;
25045;SDS011;13044;49.304;12.840;2023-06-01T03:50:31;6.85;;;3.53;;
25045;SDS011;13044;49.304;12.840;2023-06-01T03:52:58;10.50;;;3.67;;
25045;SDS011;13044;49.304;12.840;2023-06-01T03:55:25;4.82;;;3.33;;
25045;SDS011;13044;49.304;12.840;2023-06-01T03:57:53;11.27;;;4.18;;
25045;SDS011;13044;49.304;12.840;2023-06-01T04:00:20;7.18;;;3.50;;
25045;SDS011;13044;49.304;12.840;2023-06-01T04:05:25;6.95;;;3.40;;
25045;SDS011;13044;49.304;12.840;2023-06-01T04:07:53;6.35;;;3.20;;
25045;SDS011;13044;49.304;12.840;2023-06-01T04:10:22;4.53;;;3.13;;
25045;SDS011;13044;49.304;12.840;2023-06-01T04:12:49;8.15;;;3.38;;
25045;SDS011;13044;49.304;12.840;2023-06-01T04:15:18;6.45;;;3.08;;
25045;SDS011;13044;49.304;12.840;2023-06-01T04:17:46;5.53;;;3.30;;
25045;SDS011;13044;49.304;12.840;2023-06-01T04:20:14;5.95;;;3.92;;
25045;SDS011;13044;49.304;12.840;2023-06-01T04:22:43;5.22;;;3.35;;
25045;SDS011;13044;49.304;12.840;2023-06-01T04:25:12;5.82;;;3.50;;
25045;SDS011;13044;49.304;12.840;2023-06-01T04:27:44;15.68;;;3.25;;
25045;SDS011;13044;49.304;12.840;2023-06-01T04:30:14;10.98;;;3.53;;
25045;SDS011;13044;49.304;12.840;2023-06-01T04:32:42;6.78;;;3.40;;
25045;SDS011;13044;49.304;12.840;2023-06-01T04:35:11;7.15;;;3.75;;
25045;SDS011;13044;49.304;12.840;2023-06-01T04:37:38;9.02;;;3.13;;
25045;SDS011;13044;49.304;12.840;2023-06-01T04:40:07;5.88;;;3.63;;
25045;SDS011;13044;49.304;12.840;2023-06-01T04:42:36;8.88;;;3.95;;
25045;SDS011;13044;49.304;12.840;2023-06-01T04:45:09;6.53;;;3.40;;
25045;SDS011;13044;49.304;12.840;2023-06-01T04:47:37;5.40;;;3.30;;
25045;SDS011;13044;49.304;12.840;2023-06-01T04:50:09;11.82;;;3.53;;
25045;SDS011;13044;49.304;12.840;2023-06-01T04:52:41;5.40;;;3.30;;
25045;SDS011;13044;49.304;12.840;2023-06-01T04:55:09;5.13;;;2.88;;
25045;SDS011;13044;49.304;12.840;2023-06-01T04:57:40;9.45;;;3.05;;
25045;SDS011;13044;49.304;12.840;2023-06-01T05:00:10;6.55;;;2.50;;
25045;SDS011;13044;49.304;12.840;2023-06-01T05:02:45;5.38;;;2.95;;
25045;SDS011;13044;49.304;12.840;2023-06-01T05:05:14;3.67;;;2.60;;
25045;SDS011;13044;49.304;12.840;2023-06-01T05:07:41;6.28;;;2.60;;
25045;SDS011;13044;49.304;12.840;2023-06-01T05:10:10;4.53;;;2.85;;
25045;SDS011;13044;49.304;12.840;2023-06-01T05:12:38;7.25;;;2.67;;
25045;SDS011;13044;49.304;12.840;2023-06-01T05:15:06;4.72;;;2.60;;
25045;SDS011;13044;49.304;12.840;2023-06-01T05:17:35;6.85;;;3.33;;
25045;SDS011;13044;49.304;12.840;2023-06-01T05:20:02;5.32;;;2.55;;
25045;SDS011;13044;49.304;12.840;2023-06-01T05:22:29;3.83;;;2.33;;
25045;SDS011;13044;49.304;12.840;2023-06-01T05:24:56;5.45;;;2.28;;
25045;SDS011;13044;49.304;12.840;2023-06-01T05:27:23;6.78;;;2.58;;
25045;SDS011;13044;49.304;12.840;2023-06-01T05:29:50;3.60;;;2.55;;
25045;SDS011;13044;49.304;12.840;2023-06-01T05:32:17;7.65;;;2.33;;
25045;SDS011;13044;49.304;12.840;2023-06-01T05:34:44;9.07;;;2.55;;
25045;SDS011;13044;49.304;12.840;2023-06-01T05:37:11;5.03;;;2.80;;
25045;SDS011;13044;49.304;12.840;2023-06-01T05:39:38;3.22;;;2.30;;
25045;SDS011;13044;49.304;12.840;2023-06-01T05:42:05;6.35;;;2.85;;
25045;SDS011;13044;49.304;12.840;2023-06-01T05:44:33;9.27;;;2.75;;
25045;SDS011;13044;49.304;12.840;2023-06-01T05:47:00;6.57;;;2.45;;
25045;SDS011;13044;49.304;12.840;2023-06-01T05:49:26;8.40;;;2.53;;
25045;SDS011;13044;49.304;12.840;2023-06-01T05:51:57;4.82;;;2.85;;
25045;SDS011;13044;49.304;12.840;2023-06-01T05:54:25;3.13;;;2.78;;
25045;SDS011;13044;49.304;12.840;2023-06-01T05:56:52;6.15;;;2.95;;
25045;SDS011;13044;49.304;12.840;2023-06-01T05:59:19;4.78;;;2.75;;
25045;SDS011;13044;49.304;12.840;2023-06-01T06:01:46;6.05;;;3.10;;
25045;SDS011;13044;49.304;12.840;2023-06-01T06:04:14;5.00;;;2.80;;
25045;SDS011;13044;49.304;12.840;2023-06-01T06:06:42;6.10;;;2.53;;
25045;SDS011;13044;49.304;12.840;2023-06-01T06:09:09;5.72;;;2.53;;
25045;SDS011;13044;49.304;12.840;2023-06-01T06:11:38;7.78;;;2.63;;
25045;SDS011;13044;49.304;12.840;2023-06-01T06:14:05;7.65;;;2.70;;
25045;SDS011;13044;49.304;12.840;2023-06-01T06:16:32;4.50;;;2.90;;
25045;SDS011;13044;49.304;12.840;2023-06-01T06:18:59;9.45;;;3.47;;
25045;SDS011;13044;49.304;12.840;2023-06-01T06:21:26;3.45;;;2.45;;
25045;SDS011;13044;49.304;12.840;2023-06-01T06:23:53;4.05;;;2.33;;
25045;SDS011;13044;49.304;12.840;2023-06-01T06:26:25;6.00;;;2.50;;
25045;SDS011;13044;49.304;12.840;2023-06-01T06:28:53;5.55;;;2.30;;
25045;SDS011;13044;49.304;12.840;2023-06-01T06:31:20;4.68;;;2.45;;
25045;SDS011;13044;49.304;12.840;2023-06-01T06:33:47;5.65;;;2.38;;
25045;SDS011;13044;49.304;12.840;2023-06-01T06:36:14;4.82;;;2.35;;
25045;SDS011;13044;49.304;12.840;2023-06-01T06:38:42;4.45;;;2.15;;
25045;SDS011;13044;49.304;12.840;2023-06-01T06:41:10;6.45;;;2.50;;
25045;SDS011;13044;49.304;12.840;2023-06-01T06:43:37;9.57;;;2.58;;
25045;SDS011;13044;49.304;12.840;2023-06-01T06:46:04;7.30;;;2.50;;
25045;SDS011;13044;49.304;12.840;2023-06-01T06:48:31;7.65;;;2.72;;
25045;SDS011;13044;49.304;12.840;2023-06-01T06:50:58;3.83;;;2.25;;
25045;SDS011;13044;49.304;12.840;2023-06-01T06:53:25;11.15;;;2.95;;
25045;SDS011;13044;49.304;12.840;2023-06-01T06:55:52;5.50;;;2.38;;
25045;SDS011;13044;49.304;12.840;2023-06-01T06:58:19;3.45;;;2.58;;
25045;SDS011;13044;49.304;12.840;2023-06-01T07:00:46;4.10;;;2.28;;
25045;SDS011;13044;49.304;12.840;2023-06-01T07:03:12;2.42;;;1.90;;
25045;SDS011;13044;49.304;12.840;2023-06-01T07:05:40;3.80;;;2.08;;
25045;SDS011;13044;49.304;12.840;2023-06-01T07:08:06;5.15;;;2.42;;
25045;SDS011;13044;49.304;12.840;2023-06-01T07:10:33;2.67;;;2.03;;
25045;SDS011;13044;49.304;12.840;2023-06-01T07:13:00;4.55;;;1.83;;
25045;SDS011;13044;49.304;12.840;2023-06-01T07:15:27;11.98;;;2.42;;
25045;SDS011;13044;49.304;12.840;2023-06-01T07:17:54;3.35;;;2.10;;
25045;SDS011;13044;49.304;12.840;2023-06-01T07:20:21;5.13;;;2.03;;
25045;SDS011;13044;49.304;12.840;2023-06-01T07:22:48;2.10;;;1.90;;
25045;SDS011;13044;49.304;12.840;2023-06-01T07:25:16;3.45;;;2.03;;
25045;SDS011;13044;49.304;12.840;2023-06-01T07:27:43;2.78;;;1.90;;
25045;SDS011;13044;49.304;12.840;2023-06-01T07:30:10;5.45;;;2.45;;
25045;SDS011;13044;49.304;12.840;2023-06-01T07:32:38;3.13;;;2.03;;
25045;SDS011;13044;49.304;12.840;2023-06-01T07:35:06;3.22;;;2.08;;
25045;SDS011;13044;49.304;12.840;2023-06-01T07:37:34;3.85;;;2.38;;
25045;SDS011;13044;49.304;12.840;2023-06-01T07:40:01;3.50;;;2.10;;
25045;SDS011;13044;49.304;12.840;2023-06-01T07:42:33;6.05;;;2.45;;
25045;SDS011;13044;49.304;12.840;2023-06-01T07:45:00;7.43;;;2.17;;
25045;SDS011;13044;49.304;12.840;2023-06-01T07:47:28;3.30;;;2.20;;
25045;SDS011;13044;49.304;12.840;2023-06-01T07:49:55;5.03;;;2.08;;
25045;SDS011;13044;49.304;12.840;2023-06-01T07:52:22;11.93;;;2.15;;
25045;SDS011;13044;49.304;12.840;2023-06-01T07:54:49;5.82;;;2.28;;
25045;SDS011;13044;49.304;12.840;2023-06-01T07:57:17;7.32;;;2.00;;
25045;SDS011;13044;49.304;12.840;2023-06-01T07:59:44;3.15;;;2.28;;
25045;SDS011;13044;49.304;12.840;2023-06-01T08:02:11;8.23;;;2.17;;
25045;SDS011;13044;49.304;12.840;2023-06-01T08:04:39;6.32;;;2.20;;
25045;SDS011;13044;49.304;12.840;2023-06-01T08:07:06;7.65;;;1.90;;
25045;SDS011;13044;49.304;12.840;2023-06-01T08:09:35;3.60;;;1.73;;
25045;SDS011;13044;49.304;12.840;2023-06-01T08:12:04;4.70;;;2.20;;
25045;SDS011;13044;49.304;12.840;2023-06-01T08:14:31;2.58;;;1.80;;
25045;SDS011;13044;49.304;12.840;2023-06-01T08:17:03;3.65;;;2.20;;
25045;SDS011;13044;49.304;12.840;2023-06-01T08:19:32;4.20;;;1.92;;
25045;SDS011;13044;49.304;12.840;2023-06-01T08:22:00;5.55;;;2.20;;
25045;SDS011;13044;49.304;12.840;2023-06-01T08:24:30;4.30;;;2.30;;
25045;SDS011;13044;49.304;12.840;2023-06-01T08:26:58;4.03;;;1.90;;
25045;SDS011;13044;49.304;12.840;2023-06-01T08:29:25;4.40;;;2.00;;
25045;SDS011;13044;49.304;12.840;2023-06-01T08:32:07;5.57;;;2.00;;
25045;SDS011;13044;49.304;12.840;2023-06-01T08:34:35;3.03;;;2.10;;
25045;SDS011;13044;49.304;12.840;2023-06-01T08:37:02;4.40;;;2.65;;
25045;SDS011;13044;49.304;12.840;2023-06-01T08:39:30;3.47;;;1.90;;
25045;SDS011;13044;49.304;12.840;2023-06-01T08:44:47;2.47;;;1.73;;
25045;SDS011;13044;49.304;12.840;2023-06-01T08:47:19;3.58;;;1.80;;
25045;SDS011;13044;49.304;12.840;2023-06-01T08:49:50;2.45;;;1.90;;
25045;SDS011;13044;49.304;12.840;2023-06-01T08:52:21;4.13;;;2.17;;
25045;SDS011;13044;49.304;12.840;2023-06-01T08:54:54;3.15;;;1.85;;
25045;SDS011;13044;49.304;12.840;2023-06-01T08:57:22;2.85;;;1.98;;
25045;SDS011;13044;49.304;12.840;2023-06-01T08:59:49;6.50;;;2.00;;
25045;SDS011;13044;49.304;12.840;2023-06-01T09:02:16;5.50;;;1.80;;
25045;SDS011;13044;49.304;12.840;2023-06-01T09:04:43;5.32;;;2.35;;
25045;SDS011;13044;49.304;12.840;2023-06-01T09:07:11;5.18;;;2.17;;
25045;SDS011;13044;49.304;12.840;2023-06-01T09:09:40;4.45;;;2.10;;
25045;SDS011;13044;49.304;12.840;2023-06-01T09:14:46;4.05;;;2.25;;
25045;SDS011;13044;49.304;12.840;2023-06-01T09:17:14;4.63;;;2.63;;
25045;SDS011;13044;49.304;12.840;2023-06-01T09:19:49;7.65;;;2.03;;
25045;SDS011;13044;49.304;12.840;2023-06-01T09:22:21;10.50;;;2.92;;
25045;SDS011;13044;49.304;12.840;2023-06-01T09:24:55;3.28;;;2.25;;
25045;SDS011;13044;49.304;12.840;2023-06-01T09:27:24;5.25;;;2.33;;
25045;SDS011;13044;49.304;12.840;2023-06-01T09:29:56;4.28;;;2.45;;
25045;SDS011;13044;49.304;12.840;2023-06-01T09:32:27;4.05;;;2.60;;
25045;SDS011;13044;49.304;12.840;2023-06-01T09:34:54;6.28;;;2.70;;
25045;SDS011;13044;49.304;12.840;2023-06-01T09:37:21;3.90;;;2.65;;
25045;SDS011;13044;49.304;12.840;2023-06-01T09:39:48;5.30;;;3.10;;
25045;SDS011;13044;49.304;12.840;2023-06-01T09:42:15;6.10;;;3.28;;
25045;SDS011;13044;49.304;12.840;2023-06-01T09:44:42;4.55;;;2.83;;
25045;SDS011;13044;49.304;12.840;2023-06-01T09:47:11;4.70;;;3.20;;
25045;SDS011;13044;49.304;12.840;2023-06-01T09:49:42;7.55;;;3.17;;
25045;SDS011;13044;49.304;12.840;2023-06-01T09:52:14;4.80;;;3.00;;
25045;SDS011;13044;49.304;12.840;2023-06-01T09:54:44;4.00;;;2.70;;
25045;SDS011;13044;49.304;12.840;2023-06-01T09:57:24;4.35;;;2.75;;
25045;SDS011;13044;49.304;12.840;2023-06-01T09:59:55;6.60;;;3.95;;
25045;SDS011;13044;49.304;12.840;2023-06-01T10:02:23;6.00;;;2.97;;
25045;SDS011;13044;49.304;12.840;2023-06-01T10:04:52;4.47;;;2.70;;
25045;SDS011;13044;49.304;12.840;2023-06-01T10:07:22;3.65;;;2.45;;
25045;SDS011;13044;49.304;12.840;2023-06-01T10:09:51;5.78;;;2.80;;
25045;SDS011;13044;49.304;12.840;2023-06-01T10:12:25;2.85;;;2.30;;
25045;SDS011;13044;49.304;12.840;2023-06-01T10:14:54;5.20;;;2.65;;
25045;SDS011;13044;49.304;12.840;2023-06-01T10:17:22;4.57;;;2.75;;
25045;SDS011;13044;49.304;12.840;2023-06-01T10:19:49;3.80;;;2.83;;
25045;SDS011;13044;49.304;12.840;2023-06-01T10:22:17;6.78;;;2.80;;
25045;SDS011;13044;49.304;12.840;2023-06-01T10:24:44;3.55;;;2.67;;
25045;SDS011;13044;49.304;12.840;2023-06-01T10:27:27;4.05;;;2.75;;
25045;SDS011;13044;49.304;12.840;2023-06-01T10:30:02;5.15;;;2.75;;
25045;SDS011;13044;49.304;12.840;2023-06-01T10:35:04;4.50;;;2.70;;
25045;SDS011;13044;49.304;12.840;2023-06-01T10:37:32;3.22;;;2.42;;
25045;SDS011;13044;49.304;12.840;2023-06-01T10:40:33;4.28;;;2.75;;
25045;SDS011;13044;49.304;12.840;2023-06-01T10:48:02;3.53;;;2.63;;
25045;SDS011;13044;49.304;12.840;2023-06-01T10:50:31;5.30;;;2.67;;
25045;SDS011;13044;49.304;12.840;2023-06-01T11:01:46;4.35;;;2.47;;
25045;SDS011;13044;49.304;12.840;2023-06-01T11:04:14;5.60;;;2.85;;
25045;SDS011;13044;49.304;12.840;2023-06-01T11:06:42;4.68;;;2.55;;
25045;SDS011;13044;49.304;12.840;2023-06-01T11:09:10;3.97;;;2.75;;
25045;SDS011;13044;49.304;12.840;2023-06-01T11:14:17;2.85;;;2.55;;
25045;SDS011;13044;49.304;12.840;2023-06-01T11:16:47;3.45;;;2.50;;
25045;SDS011;13044;49.304;12.840;2023-06-01T11:19:20;2.33;;;2.08;;
25045;SDS011;13044;49.304;12.840;2023-06-01T11:21:56;4.10;;;2.78;;
25045;SDS011;13044;49.304;12.840;2023-06-01T11:24:33;4.80;;;2.63;;
25045;SDS011;13044;49.304;12.840;2023-06-01T11:27:08;3.00;;;2.72;;
25045;SDS011;13044;49.304;12.840;2023-06-01T11:29:37;9.40;;;2.95;;
25045;SDS011;13044;49.304;12.840;2023-06-01T11:32:04;3.97;;;2.40;;
25045;SDS011;13044;49.304;12.840;2023-06-01T11:34:36;2.75;;;2.33;;
25045;SDS011;13044;49.304;12.840;2023-06-01T11:37:14;3.75;;;2.53;;
25045;SDS011;13044;49.304;12.840;2023-06-01T11:39:42;2.63;;;2.42;;
25045;SDS011;13044;49.304;12.840;2023-06-01T11:42:10;7.22;;;2.53;;
25045;SDS011;13044;49.304;12.840;2023-06-01T11:44:44;2.50;;;2.30;;
25045;SDS011;13044;49.304;12.840;2023-06-01T11:47:22;4.97;;;2.85;;
25045;SDS011;13044;49.304;12.840;2023-06-01T11:49:54;4.80;;;2.65;;
25045;SDS011;13044;49.304;12.840;2023-06-01T11:52:21;3.90;;;2.80;;
25045;SDS011;13044;49.304;12.840;2023-06-01T11:54:48;2.85;;;2.45;;
25045;SDS011;13044;49.304;12.840;2023-06-01T11:57:18;3.42;;;2.58;;
25045;SDS011;13044;49.304;12.840;2023-06-01T11:59:47;3.80;;;2.65;;
25045;SDS011;13044;49.304;12.840;2023-06-01T12:02:20;5.00;;;2.30;;
25045;SDS011;13044;49.304;12.840;2023-06-01T12:04:54;3.38;;;2.30;;
25045;SDS011;13044;49.304;12.840;2023-06-01T12:07:25;3.65;;;2.22;;
25045;SDS011;13044;49.304;12.840;2023-06-01T12:09:53;4.47;;;2.20;;
25045;SDS011;13044;49.304;12.840;2023-06-01T12:12:24;4.32;;;2.22;;
25045;SDS011;13044;49.304;12.840;2023-06-01T12:14:51;4.35;;;2.10;;
25045;SDS011;13044;49.304;12.840;2023-06-01T12:17:19;4.18;;;2.17;;
25045;SDS011;13044;49.304;12.840;2023-06-01T12:19:49;2.65;;;2.40;;
25045;SDS011;13044;49.304;12.840;2023-06-01T12:22:17;3.85;;;2.20;;
25045;SDS011;13044;49.304;12.840;2023-06-01T12:24:44;6.72;;;2.53;;
25045;SDS011;13044;49.304;12.840;2023-06-01T12:27:12;6.82;;;3.03;;
25045;SDS011;13044;49.304;12.840;2023-06-01T12:29:42;5.93;;;2.38;;
25045;SDS011;13044;49.304;12.840;2023-06-01T12:32:13;5.25;;;1.98;;
25045;SDS011;13044;49.304;12.840;2023-06-01T12:35:01;5.22;;;2.40;;
25045;SDS011;13044;49.304;12.840;2023-06-01T12:37:33;4.78;;;2.10;;
25045;SDS011;13044;49.304;12.840;2023-06-01T12:40:00;2.92;;;2.42;;
25045;SDS011;13044;49.304;12.840;2023-06-01T12:42:34;3.10;;;2.03;;
25045;SDS011;13044;49.304;12.840;2023-06-01T12:45:04;4.07;;;2.33;;
25045;SDS011;13044;49.304;12.840;2023-06-01T12:47:38;4.18;;;1.80;;
25045;SDS011;13044;49.304;12.840;2023-06-01T12:50:10;5.90;;;2.35;;
25045;SDS011;13044;49.304;12.840;2023-06-01T12:52:39;4.32;;;2.10;;
25045;SDS011;13044;49.304;12.840;2023-06-01T12:55:10;5.55;;;1.98;;
25045;SDS011;13044;49.304;12.840;2023-06-01T12:57:37;5.40;;;1.98;;
25045;SDS011;13044;49.304;12.840;2023-06-01T13:00:04;3.65;;;2.33;;
25045;SDS011;13044;49.304;12.840;2023-06-01T13:02:32;2.88;;;2.13;;
25045;SDS011;13044;49.304;12.840;2023-06-01T13:05:01;3.20;;;2.10;;
25045;SDS011;13044;49.304;12.840;2023-06-01T13:07:28;2.92;;;2.00;;
25045;SDS011;13044;49.304;12.840;2023-06-01T13:09:55;2.58;;;1.90;;
25045;SDS011;13044;49.304;12.840;2023-06-01T13:12:25;4.90;;;2.10;;
25045;SDS011;13044;49.304;12.840;2023-06-01T13:14:53;2.92;;;2.15;;
25045;SDS011;13044;49.304;12.840;2023-06-01T13:17:22;3.10;;;1.88;;
25045;SDS011;13044;49.304;12.840;2023-06-01T13:19:49;4.38;;;2.20;;
25045;SDS011;13044;49.304;12.840;2023-06-01T13:22:15;2.42;;;1.98;;
25045;SDS011;13044;49.304;12.840;2023-06-01T13:24:42;2.67;;;2.20;;
25045;SDS011;13044;49.304;12.840;2023-06-01T13:27:12;2.50;;;2.10;;
25045;SDS011;13044;49.304;12.840;2023-06-01T13:29:39;3.05;;;2.00;;
25045;SDS011;13044;49.304;12.840;2023-06-01T13:32:07;2.33;;;1.70;;
25045;SDS011;13044;49.304;12.840;2023-06-01T13:34:34;2.50;;;1.83;;
25045;SDS011;13044;49.304;12.840;2023-06-01T13:37:02;2.85;;;2.30;;
25045;SDS011;13044;49.304;12.840;2023-06-01T13:39:28;3.15;;;2.10;;
25045;SDS011;13044;49.304;12.840;2023-06-01T13:41:55;10.48;;;1.98;;
25045;SDS011;13044;49.304;12.840;2023-06-01T13:44:23;1.90;;;1.70;;
25045;SDS011;13044;49.304;12.840;2023-06-01T13:46:50;2.05;;;1.58;;
25045;SDS011;13044;49.304;12.840;2023-06-01T13:49:17;10.32;;;2.03;;
25045;SDS011;13044;49.304;12.840;2023-06-01T13:51:43;2.17;;;1.90;;
25045;SDS011;13044;49.304;12.840;2023-06-01T13:54:10;5.43;;;2.35;;
25045;SDS011;13044;49.304;12.840;2023-06-01T13:56:39;3.45;;;1.92;;
25045;SDS011;13044;49.304;12.840;2023-06-01T13:59:07;3.83;;;2.20;;
25045;SDS011;13044;49.304;12.840;2023-06-01T14:01:33;4.35;;;2.10;;
25045;SDS011;13044;49.304;12.840;2023-06-01T14:04:01;2.20;;;2.00;;
25045;SDS011;13044;49.304;12.840;2023-06-01T14:06:29;6.40;;;2.03;;
25045;SDS011;13044;49.304;12.840;2023-06-01T14:08:56;1.85;;;1.67;;
25045;SDS011;13044;49.304;12.840;2023-06-01T14:11:23;2.10;;;1.95;;
25045;SDS011;13044;49.304;12.840;2023-06-01T14:13:51;3.00;;;2.10;;
25045;SDS011;13044;49.304;12.840;2023-06-01T14:16:18;1.73;;;1.63;;
25045;SDS011;13044;49.304;12.840;2023-06-01T14:18:45;3.72;;;2.25;;
25045;SDS011;13044;49.304;12.840;2023-06-01T14:21:12;2.42;;;1.60;;
25045;SDS011;13044;49.304;12.840;2023-06-01T14:23:39;2.10;;;1.90;;
25045;SDS011;13044;49.304;12.840;2023-06-01T14:26:10;5.18;;;2.17;;
25045;SDS011;13044;49.304;12.840;2023-06-01T14:28:37;3.10;;;1.85;;
25045;SDS011;13044;49.304;12.840;2023-06-01T14:31:04;3.15;;;1.80;;
25045;SDS011;13044;49.304;12.840;2023-06-01T14:33:31;3.30;;;2.35;;
25045;SDS011;13044;49.304;12.840;2023-06-01T14:35:58;2.83;;;2.00;;
25045;SDS011;13044;49.304;12.840;2023-06-01T14:38:25;2.55;;;2.10;;
25045;SDS011;13044;49.304;12.840;2023-06-01T14:40:52;2.90;;;2.08;;
25045;SDS011;13044;49.304;12.840;2023-06-01T14:43:19;2.08;;;1.88;;
25045;SDS011;13044;49.304;12.840;2023-06-01T14:45:46;5.90;;;2.03;;
25045;SDS011;13044;49.304;12.840;2023-06-01T14:48:13;2.97;;;1.88;;
25045;SDS011;13044;49.304;12.840;2023-06-01T14:50:40;5.45;;;2.40;;
25045;SDS011;13044;49.304;12.840;2023-06-01T14:53:07;7.85;;;2.40;;
25045;SDS011;13044;49.304;12.840;2023-06-01T14:55:34;2.47;;;1.90;;
25045;SDS011;13044;49.304;12.840;2023-06-01T14:58:01;2.83;;;2.08;;
25045;SDS011;13044;49.304;12.840;2023-06-01T15:00:28;6.40;;;1.85;;
25045;SDS011;13044;49.304;12.840;2023-06-01T15:02:55;2.70;;;2.05;;
25045;SDS011;13044;49.304;12.840;2023-06-01T15:05:22;2.60;;;2.20;;
25045;SDS011;13044;49.304;12.840;2023-06-01T15:07:49;2.20;;;2.00;;
25045;SDS011;13044;49.304;12.840;2023-06-01T15:10:16;2.78;;;1.92;;
25045;SDS011;13044;49.304;12.840;2023-06-01T15:12:43;3.75;;;2.30;;
25045;SDS011;13044;49.304;12.840;2023-06-01T15:15:10;5.10;;;2.20;;
25045;SDS011;13044;49.304;12.840;2023-06-01T15:17:38;2.70;;;2.10;;
25045;SDS011;13044;49.304;12.840;2023-06-01T15:20:06;4.32;;;2.58;;